createdAt,value
2019-04-22T00:03:08.983Z,43.52
2019-04-22T00:05:58.865Z,43.95
2019-04-22T00:08:37.654Z,43.65
2019-04-22T00:11:14.433Z,43.73
2019-04-22T00:13:40.683Z,43.90
2019-04-22T00:16:07.420Z,43.92
2019-04-22T00:18:54.771Z,44.30
2019-04-22T00:21:19.489Z,44.08
2019-04-22T00:23:46.812Z,44.30
2019-04-22T00:26:24.599Z,43.38
2019-04-22T00:31:24.747Z,42.50
2019-04-22T00:33:59.198Z,43.30
2019-04-22T00:36:27.595Z,42.60
2019-04-22T00:39:07.094Z,42.10
2019-04-22T00:41:35.934Z,48.33
2019-04-22T00:44:15.715Z,45.60
2019-04-22T00:46:46.166Z,43.25
2019-04-22T00:51:52.607Z,44.55
2019-04-22T00:54:17.081Z,44.75
2019-04-22T00:56:47.701Z,58.23
2019-04-22T00:59:23.331Z,43.75
2019-04-22T01:01:53.967Z,44.50
2019-04-22T01:04:35.106Z,45.60
2019-04-22T01:07:00.748Z,45.98
2019-04-22T01:09:43.249Z,48.35
2019-04-22T01:12:07.314Z,44.73
2019-04-22T01:14:41.454Z,44.67
2019-04-22T01:17:11.618Z,44.35
2019-04-22T01:19:52.290Z,51.08
2019-04-22T01:22:17.339Z,44.33
2019-04-22T01:24:48.114Z,44.55
2019-04-22T01:27:11.705Z,46.15
2019-04-22T01:29:46.560Z,43.63
2019-04-22T01:32:13.209Z,47.08
2019-04-22T01:34:52.704Z,53.83
2019-04-22T01:37:31.542Z,46.58
2019-04-22T01:40:14.853Z,49.45
2019-04-22T01:42:47.324Z,46.48
2019-04-22T01:45:14.238Z,45.35
2019-04-22T01:47:43.492Z,48.35
2019-04-22T01:50:12.142Z,45.03
2019-04-22T01:52:57.084Z,44.70
2019-04-22T01:55:27.729Z,43.23
2019-04-22T01:57:48.408Z,45.20
2019-04-22T02:00:18.993Z,43.92
2019-04-22T02:02:57.494Z,45.43
2019-04-22T02:05:28.659Z,41.88
2019-04-22T02:08:08.529Z,43.42
2019-04-22T02:10:40.693Z,43.55
2019-04-22T02:13:06.880Z,44.65
2019-04-22T02:15:39.642Z,43.95
2019-04-22T02:18:18.576Z,46.08
2019-04-22T02:20:43.248Z,42.55
2019-04-22T02:26:03.951Z,42.48
2019-04-22T02:28:38.361Z,41.42
2019-04-22T02:34:01.050Z,43.98
2019-04-22T02:38:59.441Z,44.15
2019-04-22T02:51:28.246Z,42.23
2019-04-22T03:01:41.168Z,45.30
2019-04-22T03:06:39.770Z,43.40
2019-04-22T03:09:18.569Z,42.60
2019-04-22T03:11:59.337Z,42.50
2019-04-22T03:16:51.100Z,40.63
2019-04-22T03:19:35.961Z,38.30
2019-04-22T03:27:00.780Z,44.90
2019-04-22T03:29:48.581Z,43.92
2019-04-22T03:37:32.281Z,35.80
2019-04-22T03:40:00.042Z,36.90
2019-04-22T03:42:10.018Z,35.35
2019-04-22T03:47:31.451Z,37.05
2019-04-22T03:52:25.057Z,37.58
2019-04-22T03:55:05.566Z,35.78
2019-04-22T03:57:50.072Z,35.65
2019-04-22T04:00:21.710Z,36.15
2019-04-22T04:02:48.345Z,37.38
2019-04-22T04:05:10.822Z,38.13
2019-04-22T04:07:47.795Z,35.15
2019-04-22T04:10:37.772Z,35.85
2019-04-22T04:15:28.414Z,32.90
2019-04-22T04:17:53.972Z,34.58
2019-04-22T04:23:08.339Z,34.75
2019-04-22T04:28:26.759Z,34.48
2019-04-22T04:33:04.998Z,35.90
2019-04-22T04:35:46.211Z,33.88
2019-04-22T04:37:58.779Z,32.75
2019-04-22T04:40:41.576Z,34.63
2019-04-22T04:48:21.008Z,35.23
2019-04-22T04:51:04.789Z,34.45
2019-04-22T04:53:20.303Z,36.20
2019-04-22T04:55:51.707Z,35.63
2019-04-22T04:58:44.182Z,35.90
2019-04-22T05:03:43.443Z,34.98
2019-04-22T05:06:07.492Z,36.70
2019-04-22T05:13:50.048Z,36.05
2019-04-22T05:16:24.431Z,34.90
2019-04-22T05:18:44.636Z,38.45
2019-04-22T05:23:53.542Z,35.63
2019-04-22T05:26:20.499Z,35.60
2019-04-22T05:28:50.057Z,36.25
2019-04-22T05:31:22.910Z,37.42
2019-04-22T05:33:56.394Z,39.15
2019-04-22T05:36:29.760Z,39.25
2019-04-22T05:39:00.088Z,38.83
2019-04-22T05:41:35.230Z,37.38
2019-04-22T05:44:08.408Z,39.23
2019-04-22T05:46:34.760Z,39.60
2019-04-22T05:49:14.898Z,37.05
2019-04-22T05:52:03.166Z,37.35
2019-04-22T05:54:32.699Z,35.92
2019-04-22T05:57:12.446Z,40.05
2019-04-22T05:59:39.455Z,36.90
2019-04-22T06:02:13.555Z,37.17
2019-04-22T06:04:45.012Z,36.28
2019-04-22T06:07:13.083Z,37.53
2019-04-22T06:09:55.375Z,37.45
2019-04-22T06:12:18.552Z,37.35
2019-04-22T06:14:54.019Z,43.45
2019-04-22T06:17:31.689Z,40.25
2019-04-22T06:20:02.756Z,37.05
2019-04-22T06:22:50.979Z,39.40
2019-04-22T06:25:17.177Z,35.48
2019-04-22T06:27:41.404Z,35.58
2019-04-22T06:30:15.421Z,35.80
2019-04-22T06:32:43.618Z,35.52
2019-04-22T06:35:23.612Z,36.58
2019-04-22T06:38:12.419Z,38.02
2019-04-22T06:40:23.664Z,37.85
2019-04-22T06:42:57.943Z,36.10
2019-04-22T06:45:24.886Z,36.77
2019-04-22T06:53:05.794Z,35.17
2019-04-22T06:55:40.207Z,33.95
2019-04-22T06:58:04.974Z,33.60
2019-04-22T07:00:48.539Z,33.48
2019-04-22T07:05:46.343Z,33.75
2019-04-22T07:08:58.067Z,34.40
2019-04-22T07:10:47.647Z,32.63
2019-04-22T07:13:23.429Z,32.88
2019-04-22T07:15:57.474Z,35.40
2019-04-22T07:18:33.882Z,34.23
2019-04-22T07:20:57.849Z,33.10
2019-04-22T07:26:18.940Z,17.15
2019-04-22T07:28:29.753Z,16.97
2019-04-22T07:31:04.022Z,17.23
2019-04-22T07:33:48.791Z,17.23
2019-04-22T07:36:30.546Z,16.65
2019-04-22T07:38:35.879Z,17.45
2019-04-22T07:41:12.451Z,17.87
2019-04-22T07:44:09.805Z,17.02
2019-04-22T07:46:18.495Z,17.32
2019-04-22T07:48:53.933Z,17.50
2019-04-22T07:51:41.075Z,16.02
2019-04-22T07:53:56.303Z,15.32
2019-04-22T07:56:24.236Z,15.08
2019-04-22T07:59:03.967Z,13.15
2019-04-22T08:01:30.586Z,14.55
2019-04-22T08:06:41.670Z,13.48
2019-04-22T08:09:13.947Z,12.98
2019-04-22T08:14:14.482Z,12.37
2019-04-22T08:16:51.312Z,10.25
2019-04-22T08:19:20.348Z,9.33
2019-04-22T08:21:50.665Z,9.68
2019-04-22T08:24:22.727Z,9.75
2019-04-22T08:26:53.071Z,10.40
2019-04-22T08:32:01.188Z,11.18
2019-04-22T08:34:29.883Z,10.82
2019-04-22T08:37:37.437Z,11.83
2019-04-22T08:39:36.775Z,11.65
2019-04-22T08:42:22.915Z,11.83
2019-04-22T08:47:21.002Z,11.65
2019-04-22T08:49:50.858Z,13.20
2019-04-22T08:52:22.310Z,12.18
2019-04-22T08:55:01.803Z,12.93
2019-04-22T08:57:40.954Z,13.35
2019-04-22T09:02:36.933Z,11.88
2019-04-22T09:05:00.182Z,12.73
2019-04-22T09:10:15.644Z,12.82
2019-04-22T09:12:51.779Z,11.03
2019-04-22T09:15:15.893Z,10.48
2019-04-22T09:17:47.804Z,9.55
2019-04-22T09:20:21.732Z,7.90
2019-04-22T09:22:48.741Z,7.10
2019-04-22T09:25:27.423Z,7.87
2019-04-22T09:28:10.676Z,7.30
2019-04-22T09:30:29.422Z,8.03
2019-04-22T09:33:06.386Z,7.95
2019-04-22T09:38:20.269Z,7.92
2019-04-22T09:40:35.059Z,8.55
2019-04-22T09:43:14.880Z,9.05
2019-04-22T09:45:43.365Z,8.70
2019-04-22T09:48:16.614Z,8.40
2019-04-22T09:53:23.943Z,10.90
2019-04-22T09:55:51.619Z,10.53
2019-04-22T09:58:26.604Z,10.72
2019-04-22T10:01:02.729Z,10.88
2019-04-22T10:03:29.346Z,11.12
2019-04-22T10:06:09.872Z,10.45
2019-04-22T10:08:40.740Z,10.45
2019-04-22T10:11:13.194Z,9.73
2019-04-22T10:13:40.600Z,10.30
2019-04-22T10:16:20.294Z,11.08
2019-04-22T10:18:46.055Z,11.12
2019-04-22T10:21:14.482Z,10.15
2019-04-22T10:23:54.216Z,10.75
2019-04-22T10:26:21.835Z,10.90
2019-04-22T10:31:34.506Z,9.93
2019-04-22T10:33:49.939Z,10.40
2019-04-22T10:36:05.819Z,11.00
2019-04-22T10:38:36.828Z,11.03
2019-04-22T10:41:16.678Z,10.53
2019-04-22T10:43:47.606Z,11.05
2019-04-22T10:46:19.865Z,10.50
2019-04-22T10:48:50.842Z,10.30
2019-04-22T10:51:22.346Z,10.08
2019-04-22T10:53:53.414Z,10.72
2019-04-22T10:56:25.164Z,10.20
2019-04-22T10:58:56.287Z,9.73
2019-04-22T11:01:27.629Z,11.18
2019-04-22T11:03:59.595Z,9.68
2019-04-22T11:06:33.699Z,10.93
2019-04-22T11:09:04.956Z,10.20
2019-04-22T11:11:45.496Z,10.10
2019-04-22T11:14:07.425Z,11.45
2019-04-22T11:16:39.491Z,11.20
2019-04-22T11:19:11.756Z,11.10
2019-04-22T11:21:43.436Z,10.58
2019-04-22T11:24:14.873Z,10.48
2019-04-22T11:26:46.981Z,11.43
2019-04-22T11:29:19.457Z,10.38
2019-04-22T11:31:50.520Z,9.23
2019-04-22T11:34:21.451Z,8.43
2019-04-22T11:36:52.685Z,9.58
2019-04-22T11:39:23.720Z,10.95
2019-04-22T11:41:55.947Z,10.93
2019-04-22T11:44:27.652Z,11.12
2019-04-22T11:46:59.144Z,10.05
2019-04-22T11:49:30.158Z,9.55
2019-04-22T11:52:01.123Z,10.15
2019-04-22T11:54:32.555Z,9.55
2019-04-22T11:57:03.515Z,9.68
2019-04-22T11:59:34.367Z,10.35
2019-04-22T12:02:06.645Z,9.90
2019-04-22T12:04:38.143Z,9.13
2019-04-22T12:07:09.088Z,9.58
2019-04-22T12:09:39.963Z,12.82
2019-04-22T12:12:11.936Z,9.45
2019-04-22T12:14:42.821Z,9.45
2019-04-22T12:17:13.937Z,9.40
2019-04-22T12:19:46.259Z,8.95
2019-04-22T12:22:17.314Z,10.28
2019-04-22T12:24:48.527Z,9.48
2019-04-22T12:27:20.445Z,10.05
2019-04-22T12:29:51.485Z,9.90
2019-04-22T12:32:23.269Z,8.50
2019-04-22T12:34:55.396Z,8.98
2019-04-22T12:37:35.212Z,8.28
2019-04-22T12:39:58.358Z,8.80
2019-04-22T12:42:29.283Z,9.35
2019-04-22T12:45:00.472Z,8.40
2019-04-22T12:47:33.581Z,9.00
2019-04-22T12:50:12.436Z,8.45
2019-04-22T12:52:43.716Z,9.05
2019-04-22T12:55:09.899Z,8.58
2019-04-22T12:57:41.018Z,9.03
2019-04-22T13:00:13.619Z,9.55
2019-04-22T13:02:45.021Z,9.48
2019-04-22T13:05:16.622Z,10.13
2019-04-22T13:07:47.467Z,10.13
2019-04-22T13:10:20.122Z,9.35
2019-04-22T13:12:51.242Z,9.65
2019-04-22T13:15:23.861Z,9.70
2019-04-22T13:18:05.776Z,10.23
2019-04-22T13:20:28.198Z,9.60
2019-04-22T13:22:59.051Z,8.70
2019-04-22T13:25:31.933Z,9.15
2019-04-22T13:28:03.022Z,8.63
2019-04-22T13:30:34.659Z,8.78
2019-04-22T13:33:07.082Z,8.65
2019-04-22T13:35:39.363Z,8.68
2019-04-22T13:38:11.104Z,9.30
2019-04-22T13:40:57.878Z,9.43
2019-04-22T13:43:16.703Z,10.30
2019-04-22T13:45:47.724Z,9.43
2019-04-22T13:51:25.831Z,10.65
2019-04-22T13:54:14.029Z,9.90
2019-04-22T13:54:14.458Z,11.10
2019-04-22T13:56:13.677Z,12.37
2019-04-22T13:58:43.135Z,11.35
2019-04-22T14:01:02.662Z,12.43
2019-04-22T14:03:35.569Z,11.97
2019-04-22T14:06:07.018Z,11.90
2019-04-22T14:08:38.010Z,11.50
2019-04-22T14:11:17.066Z,10.18
2019-04-22T14:13:41.881Z,9.40
2019-04-22T14:16:13.291Z,9.88
2019-04-22T14:18:45.967Z,9.13
2019-04-22T14:21:16.863Z,8.65
2019-04-22T14:23:48.706Z,8.73
2019-04-22T14:26:19.810Z,7.35
2019-04-22T14:28:50.672Z,7.55
2019-04-22T14:31:22.405Z,7.70
2019-04-22T14:33:56.954Z,7.50
2019-04-22T14:36:25.693Z,7.35
2019-04-22T14:38:57.790Z,7.25
2019-04-22T14:41:42.350Z,7.28
2019-04-22T14:45:06.890Z,6.45
2019-04-22T14:47:04.907Z,6.83
2019-04-22T14:49:29.433Z,6.30
2019-04-22T14:52:05.066Z,6.37
2019-04-22T14:54:22.408Z,6.58
2019-04-22T14:56:42.301Z,5.78
2019-04-22T14:59:13.421Z,5.33
2019-04-22T15:01:45.572Z,5.53
2019-04-22T15:04:17.205Z,5.17
2019-04-22T15:06:50.124Z,4.87
2019-04-22T15:09:21.728Z,4.75
2019-04-22T15:12:05.051Z,4.75
2019-04-22T15:14:25.662Z,5.00
2019-04-22T15:16:58.013Z,3.65
2019-04-22T15:19:31.648Z,3.72
2019-04-22T15:22:03.068Z,3.72
2019-04-22T15:24:34.609Z,3.90
2019-04-22T15:27:06.581Z,4.03
2019-04-22T15:29:38.974Z,4.10
2019-04-22T15:32:09.692Z,3.37
2019-04-22T15:34:41.592Z,3.35
2019-04-22T15:37:13.842Z,3.98
2019-04-22T15:39:45.704Z,4.20
2019-04-22T15:42:23.975Z,4.47
2019-04-22T15:44:48.837Z,4.30
2019-04-22T15:47:20.677Z,4.50
2019-04-22T15:49:52.177Z,4.35
2019-04-22T15:52:31.130Z,4.50
2019-04-22T15:54:56.357Z,4.30
2019-04-22T15:57:28.707Z,4.22
2019-04-22T16:00:14.687Z,4.75
2019-04-22T16:02:31.897Z,4.58
2019-04-22T16:05:02.809Z,4.75
2019-04-22T16:07:33.884Z,4.25
2019-04-22T16:10:06.170Z,4.45
2019-04-22T16:12:49.191Z,4.42
2019-04-22T16:15:11.647Z,5.12
2019-04-22T16:17:42.484Z,5.17
2019-04-22T16:20:15.071Z,4.97
2019-04-22T16:22:47.452Z,4.90
2019-04-22T16:25:19.474Z,4.92
2019-04-22T16:27:50.263Z,4.47
2019-04-22T16:30:21.609Z,4.92
2019-04-22T16:32:55.022Z,4.50
2019-04-22T16:35:26.789Z,5.22
2019-04-22T16:37:58.822Z,5.65
2019-04-22T16:40:30.527Z,6.17
2019-04-22T16:43:04.206Z,6.45
2019-04-22T16:45:33.646Z,6.08
2019-04-22T16:48:04.497Z,5.87
2019-04-22T16:50:38.269Z,5.47
2019-04-22T16:53:08.270Z,5.28
2019-04-22T16:55:39.240Z,5.72
2019-04-22T16:58:12.675Z,5.37
2019-04-22T17:00:44.774Z,7.17
2019-04-22T17:03:16.437Z,8.95
2019-04-22T17:05:49.755Z,10.03
2019-04-22T17:08:22.080Z,9.45
2019-04-22T17:10:53.619Z,8.45
2019-04-22T17:13:28.349Z,7.80
2019-04-22T17:15:59.089Z,8.60
2019-04-22T17:18:28.747Z,8.18
2019-04-22T17:21:01.168Z,8.33
2019-04-22T17:23:31.755Z,8.00
2019-04-22T17:26:02.699Z,6.35
2019-04-22T17:28:33.498Z,5.40
2019-04-22T17:31:04.661Z,4.95
2019-04-22T17:33:37.003Z,6.17
2019-04-22T17:36:09.324Z,6.72
2019-04-22T17:38:50.414Z,6.47
2019-04-22T17:41:24.700Z,6.58
2019-04-22T17:44:28.635Z,6.62
2019-04-22T17:46:33.698Z,6.92
2019-04-22T17:49:12.246Z,6.22
2019-04-22T17:51:46.621Z,6.00
2019-04-22T17:54:19.187Z,5.87
2019-04-22T17:56:48.585Z,5.70
2019-04-22T17:59:20.416Z,5.42
2019-04-22T18:02:02.815Z,6.08
2019-04-22T18:04:20.054Z,5.92
2019-04-22T18:07:19.196Z,6.05
2019-04-22T18:10:10.764Z,6.60
2019-04-22T18:12:27.656Z,6.17
2019-04-22T18:14:52.882Z,6.05
2019-04-22T18:17:25.702Z,6.00
2019-04-22T18:19:51.299Z,5.95
2019-04-22T18:22:20.319Z,6.15
2019-04-22T18:24:52.878Z,5.92
2019-04-22T18:29:56.758Z,6.80
2019-04-22T18:32:25.690Z,6.95
2019-04-22T18:35:00.423Z,6.60
2019-04-22T18:37:40.985Z,6.47
2019-04-22T18:40:08.267Z,6.22
2019-04-22T18:42:48.671Z,7.20
2019-04-22T18:45:34.448Z,6.90
2019-04-22T18:47:44.311Z,6.60
2019-04-22T18:50:24.686Z,6.40
2019-04-22T18:52:59.245Z,6.20
2019-04-22T18:55:22.042Z,6.05
2019-04-22T18:57:52.112Z,6.05
2019-04-22T19:00:14.173Z,5.87
2019-04-22T19:02:54.036Z,6.25
2019-04-22T19:05:30.315Z,6.17
2019-04-22T19:08:18.273Z,6.47
2019-04-22T19:10:56.188Z,6.30
2019-04-22T19:15:54.078Z,6.65
2019-04-22T19:18:29.717Z,6.60
2019-04-22T19:20:59.605Z,6.60
2019-04-22T19:23:28.455Z,6.60
2019-04-22T19:25:57.146Z,6.50
2019-04-22T19:28:36.073Z,6.70
2019-04-22T19:33:55.030Z,6.50
2019-04-22T19:36:26.372Z,6.45
2019-04-22T19:39:01.259Z,6.85
2019-04-22T19:41:37.123Z,6.40
2019-04-22T19:44:10.560Z,6.97
2019-04-22T19:46:34.580Z,6.78
2019-04-22T19:49:18.379Z,6.47
2019-04-22T19:51:55.864Z,6.15
2019-04-22T19:54:18.399Z,5.75
2019-04-22T19:56:42.788Z,6.60
2019-04-22T19:59:14.951Z,6.20
2019-04-22T20:01:58.667Z,6.12
2019-04-22T20:04:37.781Z,6.12
2019-04-22T20:07:05.942Z,6.30
2019-04-22T20:09:46.751Z,6.67
2019-04-22T20:12:11.720Z,6.37
2019-04-22T20:14:48.076Z,6.67
2019-04-22T20:17:25.920Z,6.10
2019-04-22T20:19:55.343Z,6.80
2019-04-22T20:22:28.301Z,6.22
2019-04-22T20:24:47.498Z,6.92
2019-04-22T20:27:31.789Z,6.15
2019-04-22T20:30:05.251Z,6.22
2019-04-22T20:32:32.701Z,6.80
2019-04-22T20:35:07.969Z,6.42
2019-04-22T20:37:47.918Z,7.17
2019-04-22T20:40:16.919Z,7.20
2019-04-22T20:42:57.012Z,6.97
2019-04-22T20:45:29.429Z,7.20
2019-04-22T20:47:46.483Z,7.00
2019-04-22T20:50:31.521Z,7.42
2019-04-22T20:53:07.180Z,7.17
2019-04-22T20:55:25.396Z,7.95
2019-04-22T20:58:13.416Z,7.85
2019-04-22T21:00:31.189Z,6.72
2019-04-22T21:03:03.916Z,7.80
2019-04-22T21:05:38.241Z,7.83
2019-04-22T21:08:19.020Z,7.72
2019-04-22T21:10:45.091Z,7.65
2019-04-22T21:13:18.118Z,8.08
2019-04-22T21:16:00.791Z,7.75
2019-04-22T21:18:25.337Z,7.33
2019-04-22T21:21:03.936Z,7.58
2019-04-22T21:23:26.458Z,7.15
2019-04-22T21:26:11.101Z,6.90
2019-04-22T21:28:38.741Z,7.30
2019-04-22T21:31:14.828Z,7.85
2019-04-22T21:33:46.546Z,8.25
2019-04-22T21:36:25.428Z,7.60
2019-04-22T21:38:51.265Z,7.90
2019-04-22T21:41:23.283Z,7.80
2019-04-22T21:43:52.608Z,7.33
2019-04-22T21:46:23.190Z,7.78
2019-04-22T21:48:59.802Z,7.75
2019-04-22T21:51:39.430Z,7.45
2019-04-22T21:54:09.665Z,7.50
2019-04-22T21:57:05.693Z,7.80
2019-04-22T21:59:15.744Z,7.40
2019-04-22T22:01:52.387Z,8.20
2019-04-22T22:04:17.618Z,7.47
2019-04-22T22:06:40.293Z,6.62
2019-04-22T22:09:20.386Z,7.60
2019-04-22T22:11:49.121Z,6.80
2019-04-22T22:14:22.461Z,6.87
2019-04-22T22:16:50.844Z,7.05
2019-04-22T22:19:28.722Z,6.70
2019-04-22T22:22:07.422Z,7.20
2019-04-22T22:24:33.946Z,7.05
2019-04-22T22:27:04.517Z,7.30
2019-04-22T22:30:05.573Z,7.28
